sensor_id;sensor_type;location;lat;lon;timestamp;P1;durP1;ratioP1;P2;durP2;ratioP2
22026;SDS011;11177;50.966;10.070;2023-03-01T00:01:03;20.70;;;10.68;;
22026;SDS011;11177;50.966;10.070;2023-03-01T00:03:30;19.63;;;10.82;;
22026;SDS011;11177;50.966;10.070;2023-03-01T00:05:59;19.13;;;10.93;;
22026;SDS011;11177;50.966;10.070;2023-03-01T00:08:26;22.52;;;11.10;;
22026;SDS011;11177;50.966;10.070;2023-03-01T00:11:00;19.65;;;10.88;;
22026;SDS011;11177;50.966;10.070;2023-03-01T00:13:31;20.95;;;10.73;;
22026;SDS011;11177;50.966;10.070;2023-03-01T00:15:58;20.90;;;10.85;;
22026;SDS011;11177;50.966;10.070;2023-03-01T00:18:25;23.20;;;11.30;;
22026;SDS011;11177;50.966;10.070;2023-03-01T00:20:52;22.08;;;11.32;;
22026;SDS011;11177;50.966;10.070;2023-03-01T00:23:20;18.27;;;10.65;;
22026;SDS011;11177;50.966;10.070;2023-03-01T00:25:47;22.13;;;11.73;;
22026;SDS011;11177;50.966;10.070;2023-03-01T00:28:15;21.15;;;11.35;;
22026;SDS011;11177;50.966;10.070;2023-03-01T00:30:42;23.15;;;10.88;;
22026;SDS011;11177;50.966;10.070;2023-03-01T00:33:09;18.90;;;10.77;;
22026;SDS011;11177;50.966;10.070;2023-03-01T00:35:35;18.83;;;10.82;;
22026;SDS011;11177;50.966;10.070;2023-03-01T00:38:02;20.20;;;11.38;;
22026;SDS011;11177;50.966;10.070;2023-03-01T00:40:31;19.25;;;11.43;;
22026;SDS011;11177;50.966;10.070;2023-03-01T00:42:58;18.52;;;10.43;;
22026;SDS011;11177;50.966;10.070;2023-03-01T00:45:25;19.90;;;10.20;;
22026;SDS011;11177;50.966;10.070;2023-03-01T00:47:52;21.13;;;11.18;;
22026;SDS011;11177;50.966;10.070;2023-03-01T00:50:19;19.92;;;10.65;;
22026;SDS011;11177;50.966;10.070;2023-03-01T00:52:46;18.55;;;10.77;;
22026;SDS011;11177;50.966;10.070;2023-03-01T00:55:13;19.58;;;11.10;;
22026;SDS011;11177;50.966;10.070;2023-03-01T00:57:40;18.10;;;10.30;;
22026;SDS011;11177;50.966;10.070;2023-03-01T01:00:07;19.52;;;11.13;;
22026;SDS011;11177;50.966;10.070;2023-03-01T01:02:35;19.17;;;10.73;;
22026;SDS011;11177;50.966;10.070;2023-03-01T01:05:03;20.60;;;11.10;;
22026;SDS011;11177;50.966;10.070;2023-03-01T01:07:30;19.08;;;11.15;;
22026;SDS011;11177;50.966;10.070;2023-03-01T01:09:57;20.20;;;10.88;;
22026;SDS011;11177;50.966;10.070;2023-03-01T01:12:24;22.15;;;11.07;;
22026;SDS011;11177;50.966;10.070;2023-03-01T01:14:51;18.80;;;11.10;;
22026;SDS011;11177;50.966;10.070;2023-03-01T01:17:17;19.95;;;10.65;;
22026;SDS011;11177;50.966;10.070;2023-03-01T01:19:44;23.33;;;11.57;;
22026;SDS011;11177;50.966;10.070;2023-03-01T01:22:11;19.13;;;10.63;;
22026;SDS011;11177;50.966;10.070;2023-03-01T01:24:37;19.85;;;10.75;;
22026;SDS011;11177;50.966;10.070;2023-03-01T01:27:04;18.63;;;10.55;;
22026;SDS011;11177;50.966;10.070;2023-03-01T01:29:31;19.25;;;10.50;;
22026;SDS011;11177;50.966;10.070;2023-03-01T01:31:57;18.52;;;10.35;;
22026;SDS011;11177;50.966;10.070;2023-03-01T01:34:24;19.05;;;10.98;;
22026;SDS011;11177;50.966;10.070;2023-03-01T01:36:51;22.52;;;10.60;;
22026;SDS011;11177;50.966;10.070;2023-03-01T01:39:21;18.13;;;10.25;;
22026;SDS011;11177;50.966;10.070;2023-03-01T01:41:48;19.17;;;10.50;;
22026;SDS011;11177;50.966;10.070;2023-03-01T01:44:20;20.38;;;10.40;;
22026;SDS011;11177;50.966;10.070;2023-03-01T01:49:44;19.00;;;10.70;;
22026;SDS011;11177;50.966;10.070;2023-03-01T01:52:16;19.02;;;10.80;;
22026;SDS011;11177;50.966;10.070;2023-03-01T01:54:46;20.10;;;11.48;;
22026;SDS011;11177;50.966;10.070;2023-03-01T01:57:18;18.90;;;10.68;;
22026;SDS011;11177;50.966;10.070;2023-03-01T01:59:53;18.35;;;10.52;;
22026;SDS011;11177;50.966;10.070;2023-03-01T02:02:21;19.85;;;10.38;;
22026;SDS011;11177;50.966;10.070;2023-03-01T02:04:50;22.17;;;10.98;;
22026;SDS011;11177;50.966;10.070;2023-03-01T02:07:21;22.05;;;11.07;;
22026;SDS011;11177;50.966;10.070;2023-03-01T02:09:50;20.67;;;11.52;;
22026;SDS011;11177;50.966;10.070;2023-03-01T02:12:19;22.30;;;11.27;;
22026;SDS011;11177;50.966;10.070;2023-03-01T02:14:47;18.90;;;10.55;;
22026;SDS011;11177;50.966;10.070;2023-03-01T02:17:14;19.48;;;10.85;;
22026;SDS011;11177;50.966;10.070;2023-03-01T02:20:07;18.92;;;10.70;;
22026;SDS011;11177;50.966;10.070;2023-03-01T02:22:55;22.42;;;11.43;;
22026;SDS011;11177;50.966;10.070;2023-03-01T02:31:04;21.17;;;11.10;;
22026;SDS011;11177;50.966;10.070;2023-03-01T02:33:51;22.17;;;10.43;;
22026;SDS011;11177;50.966;10.070;2023-03-01T02:36:20;19.67;;;10.82;;
22026;SDS011;11177;50.966;10.070;2023-03-01T02:38:50;24.55;;;11.65;;
22026;SDS011;11177;50.966;10.070;2023-03-01T02:41:18;20.88;;;11.00;;
22026;SDS011;11177;50.966;10.070;2023-03-01T02:43:46;21.65;;;10.93;;
22026;SDS011;11177;50.966;10.070;2023-03-01T02:46:15;19.98;;;10.80;;
22026;SDS011;11177;50.966;10.070;2023-03-01T02:48:51;23.92;;;11.68;;
22026;SDS011;11177;50.966;10.070;2023-03-01T02:55:01;20.42;;;11.07;;
22026;SDS011;11177;50.966;10.070;2023-03-01T02:57:31;22.05;;;10.98;;
22026;SDS011;11177;50.966;10.070;2023-03-01T02:59:59;25.13;;;12.15;;
22026;SDS011;11177;50.966;10.070;2023-03-01T03:02:33;21.35;;;11.45;;
22026;SDS011;11177;50.966;10.070;2023-03-01T03:05:04;23.42;;;12.13;;
22026;SDS011;11177;50.966;10.070;2023-03-01T03:07:35;23.20;;;11.70;;
22026;SDS011;11177;50.966;10.070;2023-03-01T03:10:04;21.92;;;12.38;;
22026;SDS011;11177;50.966;10.070;2023-03-01T03:12:34;22.00;;;11.23;;
22026;SDS011;11177;50.966;10.070;2023-03-01T03:15:00;21.55;;;11.18;;
22026;SDS011;11177;50.966;10.070;2023-03-01T03:17:27;24.38;;;11.73;;
22026;SDS011;11177;50.966;10.070;2023-03-01T03:19:54;25.17;;;12.60;;
22026;SDS011;11177;50.966;10.070;2023-03-01T03:22:21;24.35;;;13.20;;
22026;SDS011;11177;50.966;10.070;2023-03-01T03:24:47;24.23;;;12.55;;
22026;SDS011;11177;50.966;10.070;2023-03-01T03:27:14;28.35;;;15.20;;
22026;SDS011;11177;50.966;10.070;2023-03-01T03:29:41;27.33;;;13.48;;
22026;SDS011;11177;50.966;10.070;2023-03-01T03:32:07;25.20;;;13.60;;
22026;SDS011;11177;50.966;10.070;2023-03-01T03:34:34;24.77;;;13.90;;
22026;SDS011;11177;50.966;10.070;2023-03-01T03:37:01;24.42;;;13.93;;
22026;SDS011;11177;50.966;10.070;2023-03-01T03:39:27;26.88;;;14.25;;
22026;SDS011;11177;50.966;10.070;2023-03-01T03:41:55;30.52;;;15.43;;
22026;SDS011;11177;50.966;10.070;2023-03-01T03:44:21;28.42;;;14.63;;
22026;SDS011;11177;50.966;10.070;2023-03-01T03:46:48;28.15;;;14.05;;
22026;SDS011;11177;50.966;10.070;2023-03-01T03:49:15;27.90;;;13.13;;
22026;SDS011;11177;50.966;10.070;2023-03-01T03:51:42;27.40;;;12.82;;
22026;SDS011;11177;50.966;10.070;2023-03-01T03:54:08;29.42;;;13.75;;
22026;SDS011;11177;50.966;10.070;2023-03-01T03:56:35;27.48;;;13.77;;
22026;SDS011;11177;50.966;10.070;2023-03-01T03:59:03;27.73;;;14.68;;
22026;SDS011;11177;50.966;10.070;2023-03-01T04:01:32;31.30;;;13.52;;
22026;SDS011;11177;50.966;10.070;2023-03-01T04:03:58;28.48;;;14.23;;
22026;SDS011;11177;50.966;10.070;2023-03-01T04:06:30;28.38;;;14.10;;
22026;SDS011;11177;50.966;10.070;2023-03-01T04:08:57;28.80;;;13.95;;
22026;SDS011;11177;50.966;10.070;2023-03-01T04:11:26;29.08;;;14.63;;
22026;SDS011;11177;50.966;10.070;2023-03-01T04:13:54;30.95;;;14.23;;
22026;SDS011;11177;50.966;10.070;2023-03-01T04:16:22;31.10;;;13.60;;
22026;SDS011;11177;50.966;10.070;2023-03-01T04:18:49;26.35;;;12.63;;
22026;SDS011;11177;50.966;10.070;2023-03-01T04:21:17;22.75;;;11.70;;
22026;SDS011;11177;50.966;10.070;2023-03-01T04:23:43;22.02;;;12.23;;
22026;SDS011;11177;50.966;10.070;2023-03-01T04:26:10;21.50;;;11.35;;
22026;SDS011;11177;50.966;10.070;2023-03-01T04:28:38;25.00;;;12.35;;
22026;SDS011;11177;50.966;10.070;2023-03-01T04:31:10;20.38;;;11.35;;
22026;SDS011;11177;50.966;10.070;2023-03-01T04:33:43;21.13;;;11.68;;
22026;SDS011;11177;50.966;10.070;2023-03-01T04:36:12;22.63;;;12.05;;
22026;SDS011;11177;50.966;10.070;2023-03-01T04:38:40;22.23;;;12.10;;
22026;SDS011;11177;50.966;10.070;2023-03-01T04:41:08;23.45;;;12.40;;
22026;SDS011;11177;50.966;10.070;2023-03-01T04:43:37;32.35;;;12.93;;
22026;SDS011;11177;50.966;10.070;2023-03-01T04:46:06;26.77;;;12.48;;
22026;SDS011;11177;50.966;10.070;2023-03-01T04:48:36;25.70;;;12.80;;
22026;SDS011;11177;50.966;10.070;2023-03-01T04:51:03;32.88;;;12.98;;
22026;SDS011;11177;50.966;10.070;2023-03-01T04:53:32;26.17;;;12.93;;
22026;SDS011;11177;50.966;10.070;2023-03-01T04:55:59;25.63;;;13.05;;
22026;SDS011;11177;50.966;10.070;2023-03-01T04:58:26;29.52;;;14.15;;
22026;SDS011;11177;50.966;10.070;2023-03-01T05:00:53;29.23;;;14.45;;
22026;SDS011;11177;50.966;10.070;2023-03-01T05:03:20;26.83;;;14.20;;
22026;SDS011;11177;50.966;10.070;2023-03-01T05:05:48;34.60;;;14.20;;
22026;SDS011;11177;50.966;10.070;2023-03-01T05:08:16;28.65;;;14.95;;
22026;SDS011;11177;50.966;10.070;2023-03-01T05:10:44;31.02;;;15.35;;
22026;SDS011;11177;50.966;10.070;2023-03-01T05:13:13;31.55;;;15.43;;
22026;SDS011;11177;50.966;10.070;2023-03-01T05:15:39;31.88;;;15.25;;
22026;SDS011;11177;50.966;10.070;2023-03-01T05:18:06;31.67;;;15.48;;
22026;SDS011;11177;50.966;10.070;2023-03-01T05:20:37;30.73;;;14.27;;
22026;SDS011;11177;50.966;10.070;2023-03-01T05:23:05;31.42;;;14.65;;
22026;SDS011;11177;50.966;10.070;2023-03-01T05:25:32;32.15;;;14.13;;
22026;SDS011;11177;50.966;10.070;2023-03-01T05:28:00;33.67;;;14.80;;
22026;SDS011;11177;50.966;10.070;2023-03-01T05:30:31;30.13;;;15.02;;
22026;SDS011;11177;50.966;10.070;2023-03-01T05:32:59;31.90;;;13.95;;
22026;SDS011;11177;50.966;10.070;2023-03-01T05:35:27;27.10;;;13.20;;
22026;SDS011;11177;50.966;10.070;2023-03-01T05:37:54;29.38;;;14.10;;
22026;SDS011;11177;50.966;10.070;2023-03-01T05:40:21;26.15;;;13.95;;
22026;SDS011;11177;50.966;10.070;2023-03-01T05:42:52;30.65;;;14.70;;
22026;SDS011;11177;50.966;10.070;2023-03-01T05:45:21;27.90;;;13.48;;
22026;SDS011;11177;50.966;10.070;2023-03-01T05:47:49;31.33;;;14.40;;
22026;SDS011;11177;50.966;10.070;2023-03-01T05:50:17;32.65;;;14.52;;
22026;SDS011;11177;50.966;10.070;2023-03-01T05:52:47;28.65;;;14.48;;
22026;SDS011;11177;50.966;10.070;2023-03-01T05:55:18;30.88;;;15.45;;
22026;SDS011;11177;50.966;10.070;2023-03-01T05:57:46;35.30;;;15.27;;
22026;SDS011;11177;50.966;10.070;2023-03-01T06:00:14;28.08;;;14.75;;
22026;SDS011;11177;50.966;10.070;2023-03-01T06:02:42;28.92;;;14.80;;
22026;SDS011;11177;50.966;10.070;2023-03-01T06:05:09;34.75;;;15.00;;
22026;SDS011;11177;50.966;10.070;2023-03-01T06:07:36;35.08;;;14.93;;
22026;SDS011;11177;50.966;10.070;2023-03-01T06:10:04;34.63;;;15.05;;
22026;SDS011;11177;50.966;10.070;2023-03-01T06:12:32;28.80;;;14.25;;
22026;SDS011;11177;50.966;10.070;2023-03-01T06:15:00;39.05;;;15.25;;
22026;SDS011;11177;50.966;10.070;2023-03-01T06:17:30;32.08;;;15.02;;
22026;SDS011;11177;50.966;10.070;2023-03-01T06:20:02;33.28;;;16.27;;
22026;SDS011;11177;50.966;10.070;2023-03-01T06:22:29;34.40;;;15.60;;
22026;SDS011;11177;50.966;10.070;2023-03-01T06:24:56;32.65;;;16.77;;
22026;SDS011;11177;50.966;10.070;2023-03-01T06:27:22;35.67;;;16.30;;
22026;SDS011;11177;50.966;10.070;2023-03-01T06:29:52;31.63;;;16.02;;
22026;SDS011;11177;50.966;10.070;2023-03-01T06:32:20;31.80;;;16.40;;
22026;SDS011;11177;50.966;10.070;2023-03-01T06:34:47;30.77;;;16.73;;
22026;SDS011;11177;50.966;10.070;2023-03-01T06:37:14;34.97;;;16.77;;
22026;SDS011;11177;50.966;10.070;2023-03-01T06:39:40;31.75;;;15.30;;
22026;SDS011;11177;50.966;10.070;2023-03-01T06:42:08;35.25;;;15.45;;
22026;SDS011;11177;50.966;10.070;2023-03-01T06:44:36;34.53;;;15.13;;
22026;SDS011;11177;50.966;10.070;2023-03-01T06:47:03;35.35;;;15.55;;
22026;SDS011;11177;50.966;10.070;2023-03-01T06:49:30;32.03;;;15.60;;
22026;SDS011;11177;50.966;10.070;2023-03-01T06:51:57;36.45;;;15.88;;
22026;SDS011;11177;50.966;10.070;2023-03-01T06:54:24;34.58;;;15.60;;
22026;SDS011;11177;50.966;10.070;2023-03-01T06:56:52;33.03;;;16.77;;
22026;SDS011;11177;50.966;10.070;2023-03-01T06:59:19;42.88;;;19.17;;
22026;SDS011;11177;50.966;10.070;2023-03-01T07:01:46;35.85;;;18.42;;
22026;SDS011;11177;50.966;10.070;2023-03-01T07:04:13;38.03;;;19.58;;
22026;SDS011;11177;50.966;10.070;2023-03-01T07:06:40;40.35;;;19.40;;
22026;SDS011;11177;50.966;10.070;2023-03-01T07:09:07;38.60;;;19.30;;
22026;SDS011;11177;50.966;10.070;2023-03-01T07:11:34;37.33;;;18.83;;
22026;SDS011;11177;50.966;10.070;2023-03-01T07:14:00;35.25;;;18.20;;
22026;SDS011;11177;50.966;10.070;2023-03-01T07:16:27;30.85;;;16.35;;
22026;SDS011;11177;50.966;10.070;2023-03-01T07:18:54;35.78;;;15.32;;
22026;SDS011;11177;50.966;10.070;2023-03-01T07:21:21;34.15;;;15.07;;
22026;SDS011;11177;50.966;10.070;2023-03-01T07:23:47;29.15;;;14.82;;
22026;SDS011;11177;50.966;10.070;2023-03-01T07:26:15;30.92;;;14.75;;
22026;SDS011;11177;50.966;10.070;2023-03-01T07:28:41;31.33;;;15.13;;
22026;SDS011;11177;50.966;10.070;2023-03-01T07:31:08;27.98;;;14.18;;
22026;SDS011;11177;50.966;10.070;2023-03-01T07:33:35;27.33;;;13.48;;
22026;SDS011;11177;50.966;10.070;2023-03-01T07:36:02;28.65;;;13.85;;
22026;SDS011;11177;50.966;10.070;2023-03-01T07:38:30;29.25;;;13.50;;
22026;SDS011;11177;50.966;10.070;2023-03-01T07:41:01;29.42;;;14.35;;
22026;SDS011;11177;50.966;10.070;2023-03-01T07:43:29;27.73;;;13.63;;
22026;SDS011;11177;50.966;10.070;2023-03-01T07:46:03;24.08;;;13.15;;
22026;SDS011;11177;50.966;10.070;2023-03-01T07:48:30;25.77;;;13.45;;
22026;SDS011;11177;50.966;10.070;2023-03-01T07:50:58;26.55;;;13.05;;
22026;SDS011;11177;50.966;10.070;2023-03-01T07:53:26;24.15;;;12.50;;
22026;SDS011;11177;50.966;10.070;2023-03-01T07:56:03;26.08;;;12.98;;
22026;SDS011;11177;50.966;10.070;2023-03-01T07:58:33;23.45;;;12.57;;
22026;SDS011;11177;50.966;10.070;2023-03-01T08:01:02;21.75;;;11.93;;
22026;SDS011;11177;50.966;10.070;2023-03-01T08:03:29;26.60;;;12.80;;
22026;SDS011;11177;50.966;10.070;2023-03-01T08:05:57;25.98;;;13.27;;
22026;SDS011;11177;50.966;10.070;2023-03-01T08:08:26;24.30;;;12.63;;
22026;SDS011;11177;50.966;10.070;2023-03-01T08:10:52;23.08;;;12.52;;
22026;SDS011;11177;50.966;10.070;2023-03-01T08:13:23;20.45;;;12.27;;
22026;SDS011;11177;50.966;10.070;2023-03-01T08:15:50;25.65;;;12.88;;
22026;SDS011;11177;50.966;10.070;2023-03-01T08:18:17;22.20;;;12.43;;
22026;SDS011;11177;50.966;10.070;2023-03-01T08:20:45;23.55;;;12.50;;
22026;SDS011;11177;50.966;10.070;2023-03-01T08:23:12;22.67;;;12.82;;
22026;SDS011;11177;50.966;10.070;2023-03-01T08:25:39;24.33;;;13.25;;
22026;SDS011;11177;50.966;10.070;2023-03-01T08:28:06;23.42;;;11.75;;
22026;SDS011;11177;50.966;10.070;2023-03-01T08:30:32;22.33;;;11.98;;
22026;SDS011;11177;50.966;10.070;2023-03-01T08:32:59;22.23;;;12.32;;
22026;SDS011;11177;50.966;10.070;2023-03-01T08:35:26;21.45;;;12.15;;
22026;SDS011;11177;50.966;10.070;2023-03-01T08:37:53;20.65;;;11.52;;
22026;SDS011;11177;50.966;10.070;2023-03-01T08:40:20;20.08;;;12.10;;
22026;SDS011;11177;50.966;10.070;2023-03-01T08:42:46;21.23;;;11.15;;
22026;SDS011;11177;50.966;10.070;2023-03-01T08:45:13;23.52;;;12.07;;
22026;SDS011;11177;50.966;10.070;2023-03-01T08:47:45;22.08;;;11.85;;
22026;SDS011;11177;50.966;10.070;2023-03-01T08:50:11;25.13;;;12.32;;
22026;SDS011;11177;50.966;10.070;2023-03-01T08:52:38;19.95;;;11.55;;
22026;SDS011;11177;50.966;10.070;2023-03-01T08:55:05;20.65;;;11.35;;
22026;SDS011;11177;50.966;10.070;2023-03-01T08:57:33;20.60;;;11.77;;
22026;SDS011;11177;50.966;10.070;2023-03-01T09:00:00;20.33;;;11.68;;
22026;SDS011;11177;50.966;10.070;2023-03-01T09:02:27;22.38;;;11.90;;
22026;SDS011;11177;50.966;10.070;2023-03-01T09:04:54;20.10;;;11.63;;
22026;SDS011;11177;50.966;10.070;2023-03-01T09:07:21;19.60;;;11.07;;
22026;SDS011;11177;50.966;10.070;2023-03-01T09:09:48;28.20;;;14.52;;
22026;SDS011;11177;50.966;10.070;2023-03-01T09:12:14;22.33;;;12.57;;
22026;SDS011;11177;50.966;10.070;2023-03-01T09:14:41;22.42;;;11.40;;
22026;SDS011;11177;50.966;10.070;2023-03-01T09:17:08;19.67;;;11.55;;
22026;SDS011;11177;50.966;10.070;2023-03-01T09:19:35;22.77;;;11.93;;
22026;SDS011;11177;50.966;10.070;2023-03-01T09:22:02;22.92;;;13.45;;
22026;SDS011;11177;50.966;10.070;2023-03-01T09:24:30;31.80;;;11.82;;
22026;SDS011;11177;50.966;10.070;2023-03-01T09:26:57;22.83;;;13.10;;
22026;SDS011;11177;50.966;10.070;2023-03-01T09:29:24;23.38;;;11.75;;
22026;SDS011;11177;50.966;10.070;2023-03-01T09:31:51;20.88;;;11.48;;
22026;SDS011;11177;50.966;10.070;2023-03-01T09:34:17;26.77;;;13.43;;
22026;SDS011;11177;50.966;10.070;2023-03-01T09:36:50;23.80;;;12.85;;
22026;SDS011;11177;50.966;10.070;2023-03-01T09:39:17;25.77;;;12.90;;
22026;SDS011;11177;50.966;10.070;2023-03-01T09:41:46;24.20;;;12.93;;
22026;SDS011;11177;50.966;10.070;2023-03-01T09:47:12;25.65;;;13.40;;
22026;SDS011;11177;50.966;10.070;2023-03-01T09:49:44;26.63;;;13.18;;
22026;SDS011;11177;50.966;10.070;2023-03-01T09:52:29;21.17;;;12.55;;
22026;SDS011;11177;50.966;10.070;2023-03-01T09:55:01;25.45;;;13.10;;
22026;SDS011;11177;50.966;10.070;2023-03-01T10:00:43;24.13;;;13.15;;
22026;SDS011;11177;50.966;10.070;2023-03-01T10:06:15;20.42;;;11.93;;
22026;SDS011;11177;50.966;10.070;2023-03-01T10:09:05;23.53;;;12.40;;
22026;SDS011;11177;50.966;10.070;2023-03-01T10:11:37;22.35;;;12.63;;
22026;SDS011;11177;50.966;10.070;2023-03-01T10:17:20;20.30;;;11.98;;
22026;SDS011;11177;50.966;10.070;2023-03-01T10:19:52;23.45;;;12.63;;
22026;SDS011;11177;50.966;10.070;2023-03-01T10:22:20;22.77;;;12.43;;
22026;SDS011;11177;50.966;10.070;2023-03-01T10:24:57;23.83;;;12.27;;
22026;SDS011;11177;50.966;10.070;2023-03-01T10:27:26;23.17;;;12.27;;
22026;SDS011;11177;50.966;10.070;2023-03-01T10:30:03;22.15;;;12.73;;
22026;SDS011;11177;50.966;10.070;2023-03-01T10:32:36;21.52;;;12.05;;
22026;SDS011;11177;50.966;10.070;2023-03-01T10:35:16;22.95;;;12.55;;
22026;SDS011;11177;50.966;10.070;2023-03-01T10:38:11;20.10;;;12.00;;
22026;SDS011;11177;50.966;10.070;2023-03-01T10:40:53;19.90;;;12.02;;
22026;SDS011;11177;50.966;10.070;2023-03-01T10:43:24;22.43;;;11.57;;
22026;SDS011;11177;50.966;10.070;2023-03-01T10:45:52;22.23;;;11.43;;
22026;SDS011;11177;50.966;10.070;2023-03-01T10:48:20;21.65;;;11.27;;
22026;SDS011;11177;50.966;10.070;2023-03-01T10:53:29;23.33;;;11.52;;
22026;SDS011;11177;50.966;10.070;2023-03-01T10:56:03;21.77;;;11.63;;
22026;SDS011;11177;50.966;10.070;2023-03-01T10:58:33;18.10;;;11.05;;
22026;SDS011;11177;50.966;10.070;2023-03-01T11:01:02;18.92;;;10.50;;
22026;SDS011;11177;50.966;10.070;2023-03-01T11:03:37;21.00;;;11.52;;
22026;SDS011;11177;50.966;10.070;2023-03-01T11:08:52;21.45;;;11.10;;
22026;SDS011;11177;50.966;10.070;2023-03-01T11:11:25;21.67;;;11.80;;
22026;SDS011;11177;50.966;10.070;2023-03-01T11:14:00;19.48;;;11.52;;
22026;SDS011;11177;50.966;10.070;2023-03-01T11:17:01;24.40;;;11.98;;
22026;SDS011;11177;50.966;10.070;2023-03-01T11:19:30;22.52;;;11.77;;
22026;SDS011;11177;50.966;10.070;2023-03-01T11:22:05;23.15;;;11.13;;
22026;SDS011;11177;50.966;10.070;2023-03-01T11:24:54;19.27;;;11.85;;
22026;SDS011;11177;50.966;10.070;2023-03-01T11:27:36;25.65;;;11.65;;
22026;SDS011;11177;50.966;10.070;2023-03-01T11:30:07;20.08;;;10.90;;
22026;SDS011;11177;50.966;10.070;2023-03-01T11:32:43;20.08;;;11.05;;
22026;SDS011;11177;50.966;10.070;2023-03-01T11:35:22;19.15;;;10.68;;
22026;SDS011;11177;50.966;10.070;2023-03-01T11:37:59;24.88;;;12.90;;
22026;SDS011;11177;50.966;10.070;2023-03-01T11:41:03;23.77;;;11.98;;
22026;SDS011;11177;50.966;10.070;2023-03-01T11:47:02;35.08;;;15.23;;
22026;SDS011;11177;50.966;10.070;2023-03-01T11:50:40;26.67;;;13.20;;
22026;SDS011;11177;50.966;10.070;2023-03-01T11:52:58;31.20;;;15.20;;
22026;SDS011;11177;50.966;10.070;2023-03-01T11:58:51;23.95;;;13.07;;
22026;SDS011;11177;50.966;10.070;2023-03-01T12:04:26;25.00;;;12.80;;
22026;SDS011;11177;50.966;10.070;2023-03-01T12:06:59;21.95;;;11.95;;
22026;SDS011;11177;50.966;10.070;2023-03-01T12:09:38;19.15;;;11.38;;
22026;SDS011;11177;50.966;10.070;2023-03-01T12:12:24;22.88;;;11.52;;
22026;SDS011;11177;50.966;10.070;2023-03-01T12:15:19;22.27;;;12.70;;
22026;SDS011;11177;50.966;10.070;2023-03-01T12:20:54;23.73;;;12.38;;
22026;SDS011;11177;50.966;10.070;2023-03-01T12:23:37;20.35;;;12.18;;
22026;SDS011;11177;50.966;10.070;2023-03-01T12:26:34;24.42;;;12.40;;
22026;SDS011;11177;50.966;10.070;2023-03-01T12:29:12;26.02;;;12.80;;
22026;SDS011;11177;50.966;10.070;2023-03-01T12:32:05;26.05;;;13.80;;
22026;SDS011;11177;50.966;10.070;2023-03-01T12:40:13;23.98;;;12.50;;
22026;SDS011;11177;50.966;10.070;2023-03-01T12:46:49;22.20;;;12.90;;
22026;SDS011;11177;50.966;10.070;2023-03-01T12:49:26;24.45;;;12.70;;
22026;SDS011;11177;50.966;10.070;2023-03-01T12:54:50;22.20;;;12.05;;
22026;SDS011;11177;50.966;10.070;2023-03-01T12:57:20;20.88;;;11.75;;
22026;SDS011;11177;50.966;10.070;2023-03-01T13:00:18;24.30;;;13.30;;
22026;SDS011;11177;50.966;10.070;2023-03-01T13:03:10;22.10;;;12.25;;
22026;SDS011;11177;50.966;10.070;2023-03-01T13:05:56;22.52;;;11.35;;
22026;SDS011;11177;50.966;10.070;2023-03-01T13:08:36;22.95;;;12.18;;
22026;SDS011;11177;50.966;10.070;2023-03-01T13:11:28;19.33;;;11.70;;
22026;SDS011;11177;50.966;10.070;2023-03-01T13:16:52;25.45;;;11.77;;
22026;SDS011;11177;50.966;10.070;2023-03-01T13:19:20;20.55;;;11.93;;
22026;SDS011;11177;50.966;10.070;2023-03-01T13:21:51;19.83;;;11.40;;
22026;SDS011;11177;50.966;10.070;2023-03-01T13:24:41;21.00;;;12.07;;
22026;SDS011;11177;50.966;10.070;2023-03-01T13:27:09;25.90;;;12.02;;
22026;SDS011;11177;50.966;10.070;2023-03-01T13:29:53;20.83;;;11.43;;
22026;SDS011;11177;50.966;10.070;2023-03-01T13:32:31;23.13;;;13.13;;
22026;SDS011;11177;50.966;10.070;2023-03-01T13:43:32;20.77;;;10.93;;
22026;SDS011;11177;50.966;10.070;2023-03-01T13:46:02;19.88;;;11.25;;
22026;SDS011;11177;50.966;10.070;2023-03-01T13:48:34;19.58;;;10.52;;
22026;SDS011;11177;50.966;10.070;2023-03-01T13:51:05;21.75;;;11.32;;
22026;SDS011;11177;50.966;10.070;2023-03-01T13:53:35;21.73;;;10.33;;
22026;SDS011;11177;50.966;10.070;2023-03-01T13:56:17;20.77;;;10.82;;
22026;SDS011;11177;50.966;10.070;2023-03-01T13:58:50;18.30;;;10.15;;
22026;SDS011;11177;50.966;10.070;2023-03-01T14:03:53;18.50;;;9.90;;
22026;SDS011;11177;50.966;10.070;2023-03-01T14:06:24;15.65;;;10.13;;
22026;SDS011;11177;50.966;10.070;2023-03-01T14:09:10;17.10;;;10.15;;
22026;SDS011;11177;50.966;10.070;2023-03-01T14:12:01;21.27;;;9.85;;
22026;SDS011;11177;50.966;10.070;2023-03-01T14:14:44;20.55;;;10.45;;
22026;SDS011;11177;50.966;10.070;2023-03-01T14:23:10;17.63;;;9.20;;
22026;SDS011;11177;50.966;10.070;2023-03-01T14:25:45;18.55;;;10.02;;
22026;SDS011;11177;50.966;10.070;2023-03-01T14:28:15;20.60;;;9.93;;
22026;SDS011;11177;50.966;10.070;2023-03-01T14:30:45;18.40;;;9.57;;
22026;SDS011;11177;50.966;10.070;2023-03-01T14:33:26;19.17;;;10.45;;
22026;SDS011;11177;50.966;10.070;2023-03-01T14:36:12;17.98;;;8.65;;
22026;SDS011;11177;50.966;10.070;2023-03-01T14:38:40;19.02;;;10.35;;
22026;SDS011;11177;50.966;10.070;2023-03-01T14:41:14;19.45;;;9.73;;
22026;SDS011;11177;50.966;10.070;2023-03-01T14:43:44;20.80;;;9.75;;
22026;SDS011;11177;50.966;10.070;2023-03-01T14:46:41;17.38;;;10.00;;
22026;SDS011;11177;50.966;10.070;2023-03-01T14:49:17;18.33;;;9.90;;
22026;SDS011;11177;50.966;10.070;2023-03-01T14:51:50;16.73;;;9.32;;
22026;SDS011;11177;50.966;10.070;2023-03-01T14:54:21;19.30;;;9.70;;
22026;SDS011;11177;50.966;10.070;2023-03-01T14:56:52;18.15;;;10.05;;
22026;SDS011;11177;50.966;10.070;2023-03-01T14:59:23;18.25;;;10.38;;
22026;SDS011;11177;50.966;10.070;2023-03-01T15:01:53;16.20;;;8.98;;
22026;SDS011;11177;50.966;10.070;2023-03-01T15:04:22;16.65;;;8.93;;
22026;SDS011;11177;50.966;10.070;2023-03-01T15:06:50;18.38;;;9.65;;
22026;SDS011;11177;50.966;10.070;2023-03-01T15:09:18;28.92;;;11.93;;
22026;SDS011;11177;50.966;10.070;2023-03-01T15:11:45;15.07;;;9.13;;
22026;SDS011;11177;50.966;10.070;2023-03-01T15:14:26;20.45;;;9.20;;
22026;SDS011;11177;50.966;10.070;2023-03-01T15:16:54;18.77;;;9.05;;
22026;SDS011;11177;50.966;10.070;2023-03-01T15:19:21;15.70;;;8.75;;
22026;SDS011;11177;50.966;10.070;2023-03-01T15:21:50;16.38;;;9.07;;
22026;SDS011;11177;50.966;10.070;2023-03-01T15:24:22;15.23;;;8.77;;
22026;SDS011;11177;50.966;10.070;2023-03-01T15:26:57;19.48;;;9.25;;
22026;SDS011;11177;50.966;10.070;2023-03-01T15:29:29;18.77;;;10.32;;
22026;SDS011;11177;50.966;10.070;2023-03-01T15:31:58;15.80;;;9.15;;
22026;SDS011;11177;50.966;10.070;2023-03-01T15:34:33;16.50;;;9.32;;
22026;SDS011;11177;50.966;10.070;2023-03-01T15:37:04;16.08;;;9.02;;
22026;SDS011;11177;50.966;10.070;2023-03-01T15:39:39;19.95;;;9.55;;
22026;SDS011;11177;50.966;10.070;2023-03-01T15:42:52;17.45;;;9.60;;
22026;SDS011;11177;50.966;10.070;2023-03-01T15:47:57;17.70;;;10.07;;
22026;SDS011;11177;50.966;10.070;2023-03-01T15:50:28;19.13;;;11.20;;